Wittenberg, Wisconsin
Current Conditions -  °F | °C
As of 5:15 AM on Sunday 21 Dec 2014 (Local Time) from KAIG Reporting Station
Haze Haze  
Wind Chill: 17°   Ceiling: 300
Heat Index: 26°   Visibility: 1.2mi
Dew Point: 26°   Wind: 8mph
Humidity: 100%   Direction: 170°S
Pressure: 30.08"   Gusts: NA
Location:  44.83°N, 89.17°W
Report Text: KAIG 211115Z AUTO 17007KT 1 1/4SM BR OVC003 M03/M03 A3008 RMK AO2 T10351035
Loading
Personal Weather Stations






























Interactive Weather Map New forecast layout! Learn more

10-Day Weather Forecast

Advertisements
Track Severe Weather on mobile